< < Back
Terminal Aerodrome Forecast


Current Version              Previous Versions:   1  2  3  4  5  6  7  8  9  

Terminal Aerodrome Forecast

576
FTUS42 KJAX 021721
TAFJAX
TAF
KJAX 021721Z 0218/0318 26011KT P6SM VCTS SCT040CB BKN150 BKN250
      TEMPO 0218/0222 VRB15G30KT 3SM TSRA BR SCT020 BKN040CB OVC090
     FM030100 25003KT P6SM SCT050 BKN250
     FM031400 26008KT P6SM SCT030 BKN250=

Latest METAR

944
SAUS80 KWBC 030100
MTRJAX
METAR KJAX 030056Z 22005KT 10SM FEW085 BKN110 OVC250 23/22 A3005 RMK AO2
RAE35 SLP175 P0001 T02280217


USA.gov is the U.S. government's official web portal to all federal, state and local government web resources and services.